Time;durP1;ratioP1;P1;durP2;ratioP2;P2;SDS_P1;SDS_P2;PMS_P1;PMS_P2;Temp;Humidity;BMP_temperature;BMP_pressure;BME280_temperature;BME280_humidity;BME280_pressure;Samples;Min_cycle;Max_cycle;Signal;HPM_P1;HPM_P2
2023/01/25 10:12:37;;;;;;;22.63;20.63;;;4.00;99.90;;;;;;5127380;27;20546;-76
2023/01/25 10:15:17;;;;;;;21.60;19.67;;;5.10;99.90;;;;;;5127425;27;20444;-75
2023/01/25 10:17:44;;;;;;;23.63;21.63;;;5.00;99.90;;;;;;5127890;27;20463;-75
2023/01/25 10:20:26;;;;;;;21.97;20.07;;;5.00;99.90;;;;;;5127324;27;20451;-75
2023/01/25 10:23:11;;;;;;;21.90;20.20;;;5.10;99.90;;;;;;5127212;27;20858;-75
2023/01/25 10:25:45;;;;;;;22.40;20.60;;;5.20;99.90;;;;;;5127320;27;20629;-75
2023/01/25 10:28:26;;;;;;;23.10;21.07;;;5.20;99.90;;;;;;5127249;27;20441;-76
2023/01/25 10:30:58;;;;;;;23.83;21.93;;;5.20;99.90;;;;;;5127142;27;20866;-75
2023/01/25 10:33:27;;;;;;;22.17;20.17;;;5.10;99.90;;;;;;5127200;27;20471;-75
2023/01/25 10:35:58;;;;;;;22.50;20.60;;;5.10;99.90;;;;;;5127479;27;20519;-76
2023/01/25 10:38:29;;;;;;;21.57;19.83;;;5.00;99.90;;;;;;5127256;27;20547;-75
2023/01/25 10:41:02;;;;;;;20.87;19.23;;;5.00;99.90;;;;;;5127102;27;20448;-75
2023/01/25 10:43:30;;;;;;;20.57;18.73;;;5.10;99.90;;;;;;5127449;27;20455;-75
2023/01/25 10:45:57;;;;;;;23.57;21.53;;;5.20;99.90;;;;;;5127315;27;20453;-76
2023/01/25 10:48:29;;;;;;;23.20;21.30;;;5.10;99.90;;;;;;5127086;27;20441;-74
2023/01/25 10:50:57;;;;;;;23.07;21.27;;;5.10;99.90;;;;;;5126499;27;20487;-75
2023/01/25 10:53:27;;;;;;;22.23;20.33;;;5.20;99.90;;;;;;5126603;27;21166;-76
2023/01/25 10:55:58;;;;;;;23.33;21.47;;;5.30;99.90;;;;;;5126913;27;20453;-76
2023/01/25 10:58:38;;;;;;;22.17;20.20;;;5.30;99.90;;;;;;5127068;27;20463;-76
2023/01/25 11:01:07;;;;;;;24.67;22.60;;;5.20;99.90;;;;;;5126340;27;20456;-75
2023/01/25 11:03:36;;;;;;;23.57;21.63;;;5.10;99.90;;;;;;5126459;27;20444;-74
2023/01/25 11:06:03;;;;;;;23.07;21.33;;;5.10;99.90;;;;;;5126488;27;20521;-75
2023/01/25 11:08:34;;;;;;;23.60;21.53;;;5.00;99.90;;;;;;5126778;27;20444;-76
2023/01/25 11:11:15;;;;;;;25.00;22.43;;;4.90;99.90;;;;;;5126379;27;20503;-76
2023/01/25 11:13:43;;;;;;;27.77;24.90;;;5.00;99.90;;;;;;5111970;28;20452;-75
2023/01/25 11:16:29;;;;;;;27.47;24.83;;;5.00;99.90;;;;;;5112373;27;20453;-76
2023/01/25 11:18:57;;;;;;;23.97;21.87;;;5.00;99.90;;;;;;5112195;28;20827;-76
2023/01/25 11:21:25;;;;;;;25.77;23.43;;;5.00;99.90;;;;;;5112164;28;21011;-76
2023/01/25 11:24:00;;;;;;;25.73;23.60;;;5.00;99.90;;;;;;5111989;28;20456;-75
2023/01/25 11:26:28;;;;;;;25.37;23.17;;;4.90;99.90;;;;;;5112186;28;20452;-75
2023/01/25 11:29:12;;;;;;;26.67;24.30;;;4.80;99.90;;;;;;5111983;28;20457;-75
2023/01/25 11:31:44;;;;;;;23.93;21.53;;;4.80;99.90;;;;;;5112143;28;20857;-75
2023/01/25 11:34:12;;;;;;;25.63;23.17;;;4.70;99.90;;;;;;5113307;28;20449;-76
2023/01/25 11:36:58;;;;;;;24.27;22.17;;;4.80;99.90;;;;;;5115424;28;20637;-76
2023/01/25 11:39:40;;;;;;;24.33;21.97;;;4.80;99.90;;;;;;5112181;28;20445;-75
2023/01/25 11:42:18;;;;;;;25.30;23.10;;;4.80;99.90;;;;;;5111937;28;20445;-75
2023/01/25 11:45:11;;;;;;;23.43;21.60;;;4.70;99.90;;;;;;5112317;27;20483;-75
2023/01/25 11:47:56;;;;;;;27.33;24.83;;;4.80;99.90;;;;;;5111947;27;20456;-75
2023/01/25 11:50:31;;;;;;;24.10;22.17;;;4.90;99.90;;;;;;5111474;28;20456;-76
2023/01/25 11:53:25;;;;;;;25.40;23.20;;;4.90;99.90;;;;;;5111839;28;20464;-75
2023/01/25 11:55:59;;;;;;;25.47;23.17;;;4.90;99.90;;;;;;5111611;28;20456;-76
2023/01/25 11:58:43;;;;;;;25.70;23.47;;;4.70;99.90;;;;;;5111467;28;20452;-74
2023/01/25 12:01:20;;;;;;;24.60;22.50;;;4.80;99.90;;;;;;5111540;28;20452;-74
2023/01/25 12:04:19;;;;;;;26.67;23.70;;;4.90;99.90;;;;;;5111672;28;20452;-77
2023/01/25 12:06:58;;;;;;;28.63;25.93;;;5.00;99.90;;;;;;5106585;28;20469;-75
2023/01/25 12:09:37;;;;;;;26.07;23.67;;;4.90;99.90;;;;;;5111371;28;20951;-75
2023/01/25 12:12:15;;;;;;;25.80;23.50;;;4.80;99.90;;;;;;5111056;28;20489;-75
2023/01/25 12:15:03;;;;;;;27.93;25.47;;;4.90;99.90;;;;;;5111279;28;20449;-74
2023/01/25 12:17:44;;;;;;;25.27;23.00;;;5.00;99.90;;;;;;5111629;28;20450;-75
2023/01/25 12:20:30;;;;;;;26.10;23.90;;;5.00;99.90;;;;;;5111106;27;20449;-75
2023/01/25 12:23:11;;;;;;;27.20;24.70;;;5.00;99.90;;;;;;5110887;28;20540;-75
2023/01/25 12:25:45;;;;;;;27.47;24.50;;;5.20;99.90;;;;;;5110543;28;20457;-75
2023/01/25 12:28:19;;;;;;;26.10;23.57;;;5.20;99.90;;;;;;5111061;28;20477;-74
2023/01/25 12:30:53;;;;;;;24.73;22.60;;;5.20;99.90;;;;;;5110275;28;21010;-75
2023/01/25 12:33:25;;;;;;;25.30;23.10;;;5.10;99.90;;;;;;5109786;28;20566;-76
2023/01/25 12:35:59;;;;;;;27.13;24.83;;;5.00;99.90;;;;;;5109611;28;20445;-76
2023/01/25 12:38:31;;;;;;;28.30;25.33;;;4.90;99.90;;;;;;5109529;28;20461;-76
2023/01/25 12:41:02;;;;;;;26.87;24.47;;;4.80;99.90;;;;;;5109710;28;20449;-75
2023/01/25 12:43:35;;;;;;;29.80;27.10;;;4.80;99.90;;;;;;5109648;28;20473;-75
2023/01/25 12:46:14;;;;;;;27.47;24.90;;;4.90;99.90;;;;;;5109629;28;20559;-75
2023/01/25 12:48:46;;;;;;;26.57;24.30;;;5.00;99.90;;;;;;5109502;28;20445;-75
2023/01/25 12:51:15;;;;;;;26.57;24.20;;;5.10;99.90;;;;;;5109466;28;20840;-75
2023/01/25 12:53:45;;;;;;;26.30;24.00;;;5.10;99.90;;;;;;5109336;28;20442;-75
2023/01/25 12:56:32;;;;;;;25.67;23.13;;;5.10;99.90;;;;;;5109367;28;20457;-75
2023/01/25 12:59:07;;;;;;;22.37;20.67;;;5.20;99.90;;;;;;5109732;28;20464;-76
2023/01/25 13:01:38;;;;;;;26.23;23.67;;;5.40;99.90;;;;;;5109492;28;20448;-75
2023/01/25 13:04:20;;;;;;;25.43;22.77;;;5.40;99.90;;;;;;5109286;28;20449;-75
2023/01/25 13:06:53;;;;;;;28.33;25.90;;;5.20;99.90;;;;;;5109639;28;20556;-75
2023/01/25 13:09:26;;;;;;;31.23;28.23;;;5.10;99.90;;;;;;5109079;28;20456;-76
2023/01/25 13:11:53;;;;;;;28.23;25.53;;;4.90;99.90;;;;;;5108860;28;20512;-75
2023/01/25 13:14:27;;;;;;;26.83;24.43;;;4.80;99.90;;;;;;5109334;28;20460;-76
2023/01/25 13:16:55;;;;;;;29.23;26.10;;;4.70;99.90;;;;;;5109308;28;20802;-75
2023/01/25 13:19:41;;;;;;;27.33;24.73;;;4.70;99.90;;;;;;5109202;28;20457;-75
2023/01/25 13:22:10;;;;;;;29.97;26.97;;;4.60;99.90;;;;;;5109052;28;20438;-76
2023/01/25 13:25:06;;;;;;;27.70;24.80;;;4.60;99.90;;;;;;5108999;28;20445;-74
2023/01/25 13:27:34;;;;;;;27.67;25.17;;;4.40;99.90;;;;;;5109041;28;20814;-75
2023/01/25 13:30:03;;;;;;;28.50;25.80;;;4.30;99.90;;;;;;5109353;28;20469;-75
2023/01/25 13:33:05;;;;;;;29.63;26.60;;;4.30;99.90;;;;;;5108829;28;20493;-74
2023/01/25 13:35:44;;;;;;;28.43;26.03;;;4.40;99.90;;;;;;5109155;28;20445;-75
2023/01/25 13:38:31;;;;;;;28.13;25.50;;;4.50;99.90;;;;;;5108630;28;20448;-75
2023/01/25 13:41:18;;;;;;;31.33;25.27;;;4.50;99.90;;;;;;5108739;28;20952;-75
2023/01/25 13:43:48;;;;;;;28.90;26.20;;;4.50;99.90;;;;;;5103924;28;20916;-75
2023/01/25 13:46:19;;;;;;;27.53;24.83;;;4.50;99.90;;;;;;5108978;28;20445;-75
2023/01/25 13:48:58;;;;;;;27.27;24.67;;;4.70;99.90;;;;;;5108889;28;20441;-76
2023/01/25 13:51:30;;;;;;;25.40;23.10;;;4.70;99.90;;;;;;5109002;28;20553;-75
2023/01/25 13:53:59;;;;;;;28.17;25.53;;;4.90;99.90;;;;;;5109550;28;20445;-75
2023/01/25 13:56:29;;;;;;;27.70;24.50;;;4.90;99.90;;;;;;5108485;28;20437;-74
2023/01/25 13:58:56;;;;;;;28.00;25.50;;;4.90;99.90;;;;;;5108578;28;20453;-75
2023/01/25 14:01:24;;;;;;;27.30;24.60;;;5.00;99.90;;;;;;5108398;28;20506;-74
2023/01/25 14:03:54;;;;;;;30.83;27.60;;;4.70;99.90;;;;;;5108475;28;20556;-76
2023/01/25 14:06:24;;;;;;;29.30;26.17;;;4.70;99.90;;;;;;5108307;28;20831;-75
2023/01/25 14:08:55;;;;;;;28.57;25.57;;;4.60;99.90;;;;;;5108094;28;20920;-76
2023/01/25 14:11:23;;;;;;;29.77;26.77;;;4.60;99.90;;;;;;5107911;28;20520;-76
2023/01/25 14:14:02;;;;;;;27.60;24.70;;;4.50;99.90;;;;;;5108727;28;20449;-76
2023/01/25 14:16:30;;;;;;;28.57;25.80;;;4.50;99.90;;;;;;5108392;28;20465;-75
2023/01/25 14:19:13;;;;;;;29.37;26.47;;;4.30;99.90;;;;;;5108239;28;20936;-76
2023/01/25 14:21:40;;;;;;;28.53;25.73;;;4.30;99.90;;;;;;5107993;28;20442;-75
2023/01/25 14:24:16;;;;;;;27.10;24.70;;;4.40;99.90;;;;;;5108113;28;20452;-75
2023/01/25 14:26:46;;;;;;;27.63;24.80;;;4.40;99.90;;;;;;5108198;28;20472;-74
2023/01/25 14:29:18;;;;;;;28.13;25.30;;;4.40;99.90;;;;;;5108061;28;20814;-75
2023/01/25 14:31:49;;;;;;;31.10;26.77;;;4.50;99.90;;;;;;5108397;28;20546;-75
2023/01/25 14:34:19;;;;;;;28.30;25.40;;;4.50;99.90;;;;;;5108545;28;20445;-75
2023/01/25 14:36:46;;;;;;;29.90;26.70;;;4.70;99.90;;;;;;5108426;28;20827;-76
2023/01/25 14:39:28;;;;;;;27.70;25.00;;;4.70;99.90;;;;;;5108252;28;20934;-75
2023/01/25 14:41:55;;;;;;;27.30;24.80;;;4.70;99.90;;;;;;5108023;28;20446;-75
2023/01/25 14:44:23;;;;;;;27.13;24.60;;;4.50;99.90;;;;;;5108188;28;20959;-76
2023/01/25 14:47:09;;;;;;;31.23;28.10;;;4.30;99.90;;;;;;5108726;28;20453;-75
2023/01/25 14:49:36;;;;;;;29.77;26.50;;;4.30;99.90;;;;;;5112154;28;20460;-75
2023/01/25 14:52:07;;;;;;;28.67;25.67;;;4.30;99.90;;;;;;5112019;28;21018;-76
2023/01/25 14:54:43;;;;;;;32.53;28.90;;;4.10;99.90;;;;;;5112333;28;20456;-76
2023/01/25 14:57:30;;;;;;;28.80;25.90;;;4.00;99.90;;;;;;5112241;28;20463;-76
2023/01/25 14:59:58;;;;;;;29.80;26.93;;;4.00;99.90;;;;;;5112107;28;20540;-76
2023/01/25 15:02:29;;;;;;;28.67;25.77;;;3.90;99.90;;;;;;5111858;28;20445;-76
2023/01/25 15:04:59;;;;;;;29.60;26.47;;;3.90;99.90;;;;;;5111733;28;20449;-76
2023/01/25 15:07:42;;;;;;;27.63;24.93;;;3.90;99.90;;;;;;5111879;28;20870;-75
2023/01/25 15:10:20;;;;;;;28.40;25.80;;;3.80;99.90;;;;;;5111751;28;20510;-76
2023/01/25 15:12:58;;;;;;;29.23;26.40;;;3.90;99.90;;;;;;5112125;28;20511;-75
2023/01/25 15:15:26;;;;;;;30.27;26.77;;;4.00;99.90;;;;;;5111712;28;20449;-75
2023/01/25 15:17:54;;;;;;;28.20;25.40;;;4.10;99.90;;;;;;5111921;28;20449;-75
2023/01/25 15:20:30;;;;;;;28.67;25.90;;;4.10;99.90;;;;;;5111583;28;20457;-75
2023/01/25 15:22:59;;;;;;;31.80;28.63;;;4.00;99.90;;;;;;5111699;28;20827;-75
2023/01/25 15:25:28;;;;;;;32.17;28.97;;;4.00;99.90;;;;;;5111891;28;20446;-75
2023/01/25 15:27:54;;;;;;;30.70;27.63;;;4.00;99.90;;;;;;5111375;28;20453;-75
2023/01/25 15:30:21;;;;;;;30.87;27.73;;;3.90;99.90;;;;;;5110884;27;20468;-76
2023/01/25 15:32:49;;;;;;;31.20;27.90;;;3.80;99.90;;;;;;5110864;28;20563;-75
2023/01/25 15:35:17;;;;;;;28.97;25.97;;;3.70;99.90;;;;;;5111079;27;20808;-75
2023/01/25 15:37:45;;;;;;;32.40;28.73;;;3.70;99.90;;;;;;5111096;28;20582;-75
2023/01/25 15:40:13;;;;;;;33.70;29.90;;;3.70;99.90;;;;;;5110683;28;20892;-75
2023/01/25 15:42:41;;;;;;;30.43;27.33;;;3.80;99.90;;;;;;5110753;28;20449;-75
2023/01/25 15:45:09;;;;;;;29.63;26.70;;;3.80;99.90;;;;;;5110654;28;20453;-75
2023/01/25 15:47:36;;;;;;;31.50;28.30;;;3.80;99.90;;;;;;5110640;28;20450;-76
2023/01/25 15:50:02;;;;;;;30.53;27.23;;;3.80;99.90;;;;;;5110672;28;20464;-76
2023/01/25 15:52:29;;;;;;;30.00;26.83;;;3.90;99.90;;;;;;5110883;27;20482;-75
2023/01/25 15:54:56;;;;;;;30.33;27.27;;;4.00;99.90;;;;;;5110280;28;20449;-74
2023/01/25 15:57:28;;;;;;;30.77;27.50;;;4.00;99.90;;;;;;5110550;27;20458;-76
2023/01/25 15:59:57;;;;;;;31.27;28.07;;;3.90;99.90;;;;;;5110408;28;20457;-76
2023/01/25 16:02:25;;;;;;;29.30;26.60;;;3.80;99.90;;;;;;5110447;27;20976;-75
2023/01/25 16:04:52;;;;;;;31.00;27.43;;;3.80;99.90;;;;;;5110155;28;20510;-76
2023/01/25 16:07:23;;;;;;;31.60;28.20;;;3.70;99.90;;;;;;5110114;28;20952;-76
2023/01/25 16:09:50;;;;;;;27.10;23.63;;;3.70;99.90;;;;;;5110226;28;20449;-76
2023/01/25 16:12:16;;;;;;;30.30;26.43;;;3.70;99.90;;;;;;5110244;28;20858;-76
2023/01/25 16:14:43;;;;;;;28.60;25.60;;;3.70;99.90;;;;;;5110481;28;20450;-75
2023/01/25 16:17:17;;;;;;;33.00;29.50;;;3.70;99.90;;;;;;5109892;28;20461;-76
2023/01/25 16:19:46;;;;;;;29.17;26.30;;;3.80;99.90;;;;;;5110188;28;20473;-76
2023/01/25 16:22:14;;;;;;;30.00;26.90;;;3.90;99.90;;;;;;5110068;28;20465;-76
2023/01/25 16:24:40;;;;;;;29.47;26.50;;;3.90;99.90;;;;;;5109816;28;20456;-76
2023/01/25 16:27:15;;;;;;;30.47;27.20;;;3.90;99.90;;;;;;5109968;28;20891;-76
2023/01/25 16:29:42;;;;;;;27.97;24.10;;;3.90;99.90;;;;;;5109716;28;20449;-74
2023/01/25 16:32:09;;;;;;;28.73;25.87;;;3.80;99.90;;;;;;5109693;28;20895;-76
2023/01/25 16:34:37;;;;;;;26.13;23.37;;;3.80;99.90;;;;;;5109602;28;20461;-74
2023/01/25 16:37:03;;;;;;;25.90;23.10;;;3.80;99.90;;;;;;5109721;28;20457;-75
2023/01/25 16:39:31;;;;;;;27.23;24.67;;;3.80;99.90;;;;;;5110028;28;20944;-75
2023/01/25 16:41:58;;;;;;;23.40;20.90;;;3.90;99.90;;;;;;5109425;28;20461;-76
2023/01/25 16:44:25;;;;;;;28.47;25.77;;;3.90;99.90;;;;;;5109598;27;20678;-75
2023/01/25 16:46:51;;;;;;;29.03;26.00;;;4.00;99.90;;;;;;5109522;28;20445;-77
2023/01/25 16:49:20;;;;;;;29.33;26.37;;;4.00;99.90;;;;;;5109836;28;20500;-76
2023/01/25 16:51:49;;;;;;;27.30;23.73;;;4.10;99.90;;;;;;5110092;28;20532;-75
2023/01/25 16:54:16;;;;;;;27.80;24.57;;;4.10;99.90;;;;;;5110096;28;20553;-75
2023/01/25 16:56:43;;;;;;;27.37;24.50;;;4.10;99.90;;;;;;5109578;28;20825;-75
2023/01/25 16:59:10;;;;;;;27.30;24.33;;;4.20;99.90;;;;;;5109420;28;20488;-74
2023/01/25 17:01:38;;;;;;;24.87;22.40;;;4.20;99.90;;;;;;5109547;28;20453;-75
2023/01/25 17:04:09;;;;;;;24.73;22.23;;;4.20;99.90;;;;;;5109589;28;20449;-74
2023/01/25 17:06:37;;;;;;;24.57;22.17;;;4.30;99.90;;;;;;5109488;28;20546;-75
2023/01/25 17:09:07;;;;;;;29.50;26.37;;;4.40;99.90;;;;;;5109247;28;20859;-77
2023/01/25 17:11:37;;;;;;;25.93;23.20;;;4.40;99.90;;;;;;5108852;28;20484;-76
2023/01/25 17:14:04;;;;;;;28.50;24.90;;;4.40;99.90;;;;;;5109521;28;20537;-76
2023/01/25 17:16:32;;;;;;;29.07;26.17;;;4.30;99.90;;;;;;5109569;28;20461;-76
2023/01/25 17:19:01;;;;;;;26.20;23.67;;;4.40;99.90;;;;;;5109176;28;20955;-75
2023/01/25 17:21:31;;;;;;;25.87;23.43;;;4.40;99.90;;;;;;5109183;28;20449;-75
2023/01/25 17:23:59;;;;;;;27.50;24.57;;;4.60;99.90;;;;;;5109389;28;20450;-76
2023/01/25 17:26:29;;;;;;;25.50;22.90;;;4.50;99.90;;;;;;5109135;28;20458;-74
2023/01/25 17:28:57;;;;;;;24.73;22.23;;;4.40;99.90;;;;;;5109284;28;20456;-75
2023/01/25 17:31:26;;;;;;;27.23;24.30;;;4.30;99.90;;;;;;5108977;28;20856;-75
2023/01/25 17:33:53;;;;;;;28.60;25.50;;;4.30;99.90;;;;;;5108962;28;20568;-78
2023/01/25 17:36:20;;;;;;;27.60;24.43;;;4.30;99.90;;;;;;5108849;28;20532;-75
2023/01/25 17:38:47;;;;;;;32.43;25.77;;;4.40;99.90;;;;;;5109241;28;20453;-74
2023/01/25 17:41:17;;;;;;;28.83;25.77;;;4.30;99.90;;;;;;5108997;28;20445;-76
2023/01/25 17:43:50;;;;;;;29.10;24.00;;;4.40;99.90;;;;;;5109548;28;20461;-75
2023/01/25 17:46:21;;;;;;;30.13;27.23;;;4.30;99.90;;;;;;5109126;28;20528;-76
2023/01/25 17:48:48;;;;;;;29.77;26.60;;;4.30;99.90;;;;;;5108790;28;20457;-75
2023/01/25 17:51:15;;;;;;;25.03;22.43;;;4.30;99.90;;;;;;5109073;28;20575;-74
2023/01/25 17:53:42;;;;;;;27.00;24.27;;;4.40;99.90;;;;;;5108839;28;20482;-75
2023/01/25 17:56:11;;;;;;;27.17;24.47;;;4.30;99.90;;;;;;5108969;28;21077;-75
2023/01/25 17:58:39;;;;;;;27.30;24.57;;;4.30;99.90;;;;;;5108827;28;20453;-74
